Terminal Aerodrome Forecast
Issued by NWS Grand Forks, ND

Home | Current Version | Previous Version | Text Only | Print | Product List | Glossary Off
Versions: 1 2 3 4 5 6 7 8 9 10 11 12 13

761
FTUS43 KFGF 250540
TAFGFK
TAF
KGFK 250540Z 2506/2606 00000KT P6SM FEW050
     FM251200 25005KT P6SM BKN060
     FM251700 30009KT P6SM BKN035
     FM252300 33007KT P6SM BKN040=

USA.gov is the U.S. government's official web portal to all federal, state and local government web resources and services.